Terminal Aerodrome Forecast
Issued by NWS

Current Version | Previous Version | Text Only | Print | Product List | Glossary On
Versions: 1 2 3 4 5 6 7 8 9 10 11 12 13
000
FTUS46 KSEW 201700
TAFOLM
TAF
KOLM 201721Z 2018/2118 17006KT P6SM SCT050 BKN070
     FM202000 16005KT P6SM SCT080 SCT150
     FM210300 VRB03KT P6SM SCT150
      TEMPO 2110/2114 3SM BR
     FM211500 24005KT P6SM BKN070=

USA.gov is the U.S. government's official web portal to all federal, state and local government web resources and services.